createdAt,value
2024-02-21T00:02:39.449Z,87.29
2024-02-21T00:06:41.064Z,87.11
2024-02-21T00:10:43.202Z,86.50
2024-02-21T00:14:44.878Z,88.10
2024-02-21T00:18:48.417Z,87.36
2024-02-21T00:22:50.130Z,86.13
2024-02-21T00:26:52.007Z,86.08
2024-02-21T00:30:53.559Z,86.28
2024-02-21T00:34:56.911Z,85.23
2024-02-21T00:38:58.529Z,84.45
2024-02-21T00:43:00.141Z,84.83
2024-02-21T00:47:02.043Z,84.06
2024-02-21T00:51:05.362Z,83.02
2024-02-21T00:55:08.219Z,84.58
2024-02-21T00:59:09.941Z,84.04
2024-02-21T01:03:11.662Z,84.57
2024-02-21T01:07:14.765Z,84.05
2024-02-21T01:11:16.721Z,84.14
2024-02-21T01:15:18.960Z,84.69
2024-02-21T01:19:20.776Z,85.05
2024-02-21T01:23:23.770Z,83.86
2024-02-21T01:27:25.369Z,84.20
2024-02-21T01:31:27.090Z,84.58
2024-02-21T01:35:28.829Z,84.36
2024-02-21T01:39:31.915Z,84.04
2024-02-21T01:43:33.684Z,84.09
2024-02-21T01:47:35.733Z,84.24
2024-02-21T01:51:38.214Z,83.03
2024-02-21T01:55:42.701Z,83.42
2024-02-21T01:59:46.661Z,83.51
2024-02-21T02:03:48.624Z,83.59
2024-02-21T02:07:50.282Z,83.86
2024-02-21T02:11:54.489Z,84.59
2024-02-21T02:15:56.336Z,85.05
2024-02-21T02:19:58.373Z,84.51
2024-02-21T02:24:01.565Z,85.23
2024-02-21T02:28:04.191Z,85.18
2024-02-21T02:32:06.872Z,84.12
2024-02-21T02:36:08.775Z,83.75
2024-02-21T02:40:12.443Z,83.48
2024-02-21T02:44:14.123Z,84.80
2024-02-21T02:48:15.859Z,84.49
2024-02-21T02:52:18.373Z,83.21
2024-02-21T02:56:21.337Z,84.54
2024-02-21T03:00:23.111Z,84.50
2024-02-21T03:04:25.070Z,83.22
2024-02-21T03:08:26.802Z,83.00
2024-02-21T03:12:30.084Z,83.45
2024-02-21T03:16:32.799Z,83.05
2024-02-21T03:20:34.580Z,82.05
2024-02-21T03:24:37.643Z,82.62
2024-02-21T03:28:40.762Z,83.23
2024-02-21T03:32:42.627Z,83.91
2024-02-21T03:36:44.276Z,83.75
2024-02-21T03:40:46.250Z,85.59
2024-02-21T03:44:49.228Z,85.14
2024-02-21T03:48:50.965Z,84.73
2024-02-21T03:52:52.592Z,84.87
2024-02-21T03:56:54.767Z,85.17
2024-02-21T04:00:57.741Z,84.11
2024-02-21T04:05:00.827Z,82.75
2024-02-21T04:09:02.724Z,84.67
2024-02-21T04:13:06.145Z,85.79
2024-02-21T04:17:09.038Z,84.41
2024-02-21T04:21:13.089Z,85.09
2024-02-21T04:25:16.398Z,84.16
2024-02-21T04:29:18.141Z,83.49
2024-02-21T04:33:21.241Z,82.63
2024-02-21T04:37:23.196Z,82.60
2024-02-21T04:41:25.164Z,83.17
2024-02-21T04:45:27.997Z,83.75
2024-02-21T04:49:31.463Z,85.32
2024-02-21T04:53:33.312Z,84.28
2024-02-21T04:57:35.115Z,86.00
2024-02-21T05:01:36.838Z,84.58
2024-02-21T05:05:40.077Z,85.98
2024-02-21T05:09:43.441Z,84.36
2024-02-21T05:13:45.209Z,85.11
2024-02-21T05:17:46.989Z,83.86
2024-02-21T05:21:50.108Z,82.35
2024-02-21T05:25:51.982Z,81.76
2024-02-21T05:29:54.521Z,81.43
2024-02-21T05:33:56.108Z,80.77
2024-02-21T05:37:59.246Z,80.95
2024-02-21T05:42:01.080Z,81.56
2024-02-21T05:46:02.756Z,83.11
2024-02-21T05:50:05.180Z,82.83
2024-02-21T05:54:08.253Z,83.82
2024-02-21T05:58:09.855Z,83.86
2024-02-21T06:02:11.594Z,84.79
2024-02-21T06:06:13.268Z,84.03
2024-02-21T06:10:16.751Z,82.93
2024-02-21T06:14:28.900Z,83.67
2024-02-21T06:18:30.760Z,83.07
2024-02-21T06:22:32.522Z,83.00
2024-02-21T06:26:35.577Z,86.26
2024-02-21T06:30:37.611Z,85.46
2024-02-21T06:34:39.380Z,85.06
2024-02-21T06:38:41.410Z,84.68
2024-02-21T06:42:44.484Z,84.17
2024-02-21T06:46:46.477Z,84.18
2024-02-21T06:50:48.335Z,84.29
2024-02-21T06:54:51.143Z,85.29
2024-02-21T06:58:54.217Z,86.80
2024-02-21T07:02:56.202Z,87.82
2024-02-21T07:06:57.851Z,86.38
2024-02-21T07:11:00.021Z,86.51
2024-02-21T07:15:06.770Z,84.68
2024-02-21T07:19:09.344Z,84.03
2024-02-21T07:23:11.071Z,85.04
2024-02-21T07:27:14.721Z,83.97
2024-02-21T07:31:17.793Z,84.71
2024-02-21T07:35:19.881Z,83.77
2024-02-21T07:39:21.661Z,83.66
2024-02-21T07:43:23.808Z,83.46
2024-02-21T07:47:26.928Z,83.93
2024-02-21T07:51:28.921Z,83.82
2024-02-21T07:55:30.640Z,83.24
2024-02-21T07:59:32.255Z,82.41
2024-02-21T08:03:35.372Z,82.44
2024-02-21T08:07:37.080Z,82.63
2024-02-21T08:11:39.140Z,81.22
2024-02-21T08:15:41.944Z,82.75
2024-02-21T08:19:44.883Z,82.32
2024-02-21T08:23:46.595Z,80.55
2024-02-21T08:27:48.310Z,80.76
2024-02-21T08:31:49.948Z,80.85
2024-02-21T08:35:53.086Z,79.75
2024-02-21T08:39:54.808Z,80.07
2024-02-21T08:43:56.430Z,78.94
2024-02-21T08:47:58.218Z,79.41
2024-02-21T08:52:02.039Z,79.08
2024-02-21T08:56:04.894Z,78.54
2024-02-21T09:00:07.683Z,76.71
2024-02-21T09:04:10.086Z,75.05
2024-02-21T09:08:15.805Z,74.61
2024-02-21T09:12:17.369Z,73.25
2024-02-21T09:16:19.277Z,71.76
2024-02-21T09:20:21.026Z,72.54
2024-02-21T09:24:24.315Z,70.86
2024-02-21T09:28:26.232Z,71.42
2024-02-21T09:32:28.010Z,69.41
2024-02-21T09:36:29.851Z,67.63
2024-02-21T09:40:33.071Z,67.62
2024-02-21T09:44:38.325Z,69.24
2024-02-21T09:48:55.973Z,68.85
2024-02-21T09:52:59.833Z,69.56
2024-02-21T09:57:03.848Z,69.50
2024-02-21T10:01:11.054Z,69.06
2024-02-21T10:05:18.406Z,68.30
2024-02-21T10:09:24.447Z,68.55
2024-02-21T10:13:29.426Z,68.16
2024-02-21T10:17:31.194Z,68.21
2024-02-21T10:21:33.919Z,67.83
2024-02-21T10:25:36.400Z,67.52
2024-02-21T10:29:40.102Z,66.59
2024-02-21T10:33:42.520Z,65.84
2024-02-21T10:37:44.227Z,66.23
2024-02-21T10:41:46.302Z,65.88
2024-02-21T10:45:52.862Z,64.28
2024-02-21T10:50:03.348Z,64.76
2024-02-21T10:54:19.003Z,65.11
2024-02-21T10:58:20.846Z,63.87
2024-02-21T11:02:24.287Z,65.84
2024-02-21T11:06:27.618Z,63.31
2024-02-21T11:10:29.440Z,62.93
2024-02-21T11:14:32.541Z,62.58
2024-02-21T11:18:35.866Z,64.19
2024-02-21T11:22:42.520Z,63.80
2024-02-21T11:26:44.172Z,63.62
2024-02-21T11:30:45.993Z,65.18
2024-02-21T11:34:59.191Z,64.76
2024-02-21T11:39:05.226Z,65.08
2024-02-21T11:43:07.069Z,64.63
2024-02-21T11:47:10.043Z,63.46
2024-02-21T11:51:22.264Z,63.13
2024-02-21T11:55:25.473Z,64.03
2024-02-21T11:59:28.573Z,64.40
2024-02-21T12:03:30.832Z,63.68
2024-02-21T12:07:34.134Z,64.83
2024-02-21T12:11:35.896Z,63.42
2024-02-21T12:15:39.885Z,64.21
2024-02-21T12:19:41.585Z,64.14
2024-02-21T12:23:45.747Z,64.67
2024-02-21T12:27:47.509Z,64.47
2024-02-21T12:31:50.203Z,63.84
2024-02-21T12:35:51.778Z,64.51
2024-02-21T12:39:54.818Z,63.67
2024-02-21T12:43:56.753Z,63.85
2024-02-21T12:47:58.900Z,63.03
2024-02-21T12:52:00.690Z,63.76
2024-02-21T12:56:04.109Z,63.15
2024-02-21T13:00:07.123Z,62.74
2024-02-21T13:04:08.931Z,62.64
2024-02-21T13:08:10.655Z,62.96
2024-02-21T13:12:13.805Z,61.31
2024-02-21T13:16:15.563Z,60.82
2024-02-21T13:20:17.329Z,60.47
2024-02-21T13:24:19.177Z,60.08
2024-02-21T13:28:22.154Z,60.38
2024-02-21T13:32:23.864Z,60.96
2024-02-21T13:36:25.859Z,61.82
2024-02-21T13:40:27.636Z,62.75
2024-02-21T13:44:30.661Z,64.03
2024-02-21T13:48:32.749Z,62.29
2024-02-21T13:52:34.396Z,63.13
2024-02-21T13:56:36.094Z,63.51
2024-02-21T14:00:39.241Z,61.64
2024-02-21T14:04:40.945Z,61.96
2024-02-21T14:08:42.923Z,61.87
2024-02-21T14:12:44.532Z,61.96
2024-02-21T14:16:47.700Z,63.10
2024-02-21T14:20:49.315Z,60.77
2024-02-21T14:24:50.990Z,61.28
2024-02-21T14:28:52.705Z,60.73
2024-02-21T14:32:55.940Z,61.53
2024-02-21T14:36:57.791Z,61.92
2024-02-21T14:41:01.787Z,61.43
2024-02-21T14:45:03.980Z,62.17
2024-02-21T14:49:07.110Z,61.24
2024-02-21T14:53:09.239Z,59.81
2024-02-21T14:57:11.100Z,60.66
2024-02-21T15:01:12.792Z,58.58
2024-02-21T15:05:16.199Z,59.66
2024-02-21T15:09:17.971Z,58.84
2024-02-21T15:13:19.535Z,56.35
2024-02-21T15:17:21.259Z,55.34
2024-02-21T15:21:24.363Z,54.83
2024-02-21T15:25:26.182Z,54.50
2024-02-21T15:29:27.814Z,56.67
2024-02-21T15:33:29.415Z,56.79
2024-02-21T15:37:32.942Z,55.63
2024-02-21T15:41:34.798Z,56.35
2024-02-21T15:45:36.442Z,56.36
2024-02-21T15:49:38.213Z,56.76
2024-02-21T15:53:41.248Z,57.87
2024-02-21T15:57:43.061Z,58.68
2024-02-21T16:01:44.851Z,58.70
2024-02-21T16:05:46.936Z,58.95
2024-02-21T16:09:50.026Z,59.08
2024-02-21T16:13:51.744Z,60.89
2024-02-21T16:17:53.432Z,59.08
2024-02-21T16:21:55.457Z,60.85
2024-02-21T16:25:58.578Z,59.88
2024-02-21T16:30:00.222Z,59.83
2024-02-21T16:34:01.844Z,60.15
2024-02-21T16:38:04.041Z,59.85
2024-02-21T16:42:07.307Z,60.47
2024-02-21T16:46:08.911Z,60.11
2024-02-21T16:50:10.957Z,59.91
2024-02-21T16:54:12.735Z,60.58
2024-02-21T16:58:15.765Z,60.06
2024-02-21T17:02:17.574Z,61.58
2024-02-21T17:06:19.792Z,61.47
2024-02-21T17:10:21.783Z,62.18
2024-02-21T17:14:24.790Z,62.34
2024-02-21T17:18:26.643Z,63.43
2024-02-21T17:22:29.726Z,64.91
2024-02-21T17:26:32.202Z,64.87
2024-02-21T17:30:35.514Z,65.74
2024-02-21T17:34:37.271Z,66.63
2024-02-21T17:38:38.910Z,68.41
2024-02-21T17:42:40.744Z,68.30
2024-02-21T17:46:43.776Z,69.18
2024-02-21T17:50:45.521Z,71.17
2024-02-21T17:54:47.641Z,73.06
2024-02-21T17:58:49.940Z,73.96
2024-02-21T18:02:53.134Z,75.59
2024-02-21T18:06:54.805Z,76.28
2024-02-21T18:10:56.833Z,77.29
2024-02-21T18:15:00.721Z,78.08
2024-02-21T18:19:04.140Z,80.27
2024-02-21T18:23:06.121Z,77.83
2024-02-21T18:27:07.870Z,80.68
2024-02-21T18:31:09.577Z,81.35
2024-02-21T18:35:12.935Z,83.89
2024-02-21T18:39:14.638Z,84.21
2024-02-21T18:43:16.416Z,85.42
2024-02-21T18:47:18.216Z,85.48
2024-02-21T18:51:21.318Z,86.33
2024-02-21T18:55:23.228Z,86.43
2024-02-21T18:59:24.905Z,86.45
2024-02-21T19:03:26.562Z,89.01
2024-02-21T19:07:29.676Z,87.22
2024-02-21T19:11:31.731Z,88.48
2024-02-21T19:15:33.544Z,89.80
2024-02-21T19:19:35.240Z,89.86
2024-02-21T19:23:38.289Z,90.39
2024-02-21T19:27:40.571Z,89.34
2024-02-21T19:31:42.171Z,89.60
2024-02-21T19:35:44.002Z,90.42
2024-02-21T19:39:46.975Z,90.55
2024-02-21T19:43:48.672Z,91.26
2024-02-21T19:47:50.496Z,91.70
2024-02-21T19:51:52.057Z,92.19
2024-02-21T19:55:55.212Z,92.14
2024-02-21T19:59:56.983Z,92.62
2024-02-21T20:03:58.780Z,91.10
2024-02-21T20:08:01.438Z,91.33
2024-02-21T20:12:05.435Z,92.95
2024-02-21T20:16:07.769Z,91.66
2024-02-21T20:20:10.727Z,93.06
2024-02-21T20:24:20.455Z,91.64
2024-02-21T20:28:30.962Z,93.32
2024-02-21T20:32:32.635Z,93.09
2024-02-21T20:36:34.675Z,94.01
2024-02-21T20:40:36.506Z,93.20
2024-02-21T20:44:39.458Z,93.51
2024-02-21T20:48:41.205Z,94.06
2024-02-21T20:52:42.912Z,94.02
2024-02-21T20:56:44.641Z,94.05
2024-02-21T21:00:48.216Z,93.70
2024-02-21T21:04:49.995Z,94.89
2024-02-21T21:08:51.820Z,93.66
2024-02-21T21:12:53.535Z,95.24
2024-02-21T21:16:56.695Z,95.78
2024-02-21T21:20:58.588Z,95.20
2024-02-21T21:25:00.437Z,95.21
2024-02-21T21:29:02.143Z,94.56
2024-02-21T21:33:05.778Z,94.25
2024-02-21T21:37:07.518Z,94.88
2024-02-21T21:41:09.264Z,95.20
2024-02-21T21:45:11.837Z,95.37
2024-02-21T21:49:15.004Z,95.92
2024-02-21T21:53:16.688Z,95.63
2024-02-21T21:57:18.989Z,95.63
2024-02-21T22:01:20.642Z,95.29
2024-02-21T22:05:26.086Z,95.66
2024-02-21T22:09:27.822Z,95.50
2024-02-21T22:13:29.487Z,95.86
2024-02-21T22:17:31.262Z,96.15
2024-02-21T22:21:34.522Z,96.79
2024-02-21T22:25:36.162Z,97.26
2024-02-21T22:29:39.971Z,96.81
2024-02-21T22:33:42.548Z,96.39
2024-02-21T22:37:45.815Z,96.79
2024-02-21T22:41:47.674Z,97.37
2024-02-21T22:45:50.011Z,96.99
2024-02-21T22:49:51.679Z,97.59
2024-02-21T22:53:54.921Z,96.95
2024-02-21T22:57:56.585Z,96.84
2024-02-21T23:01:58.289Z,97.08
2024-02-21T23:05:59.903Z,97.35
2024-02-21T23:10:03.003Z,97.30
2024-02-21T23:14:04.828Z,97.11
2024-02-21T23:18:06.836Z,98.00
2024-02-21T23:22:08.450Z,97.64
2024-02-21T23:26:12.062Z,98.21
2024-02-21T23:30:13.980Z,98.00
2024-02-21T23:34:15.804Z,97.76
2024-02-21T23:38:17.690Z,98.59
2024-02-21T23:42:20.642Z,98.80
2024-02-21T23:46:22.371Z,98.35
2024-02-21T23:50:24.071Z,99.34
2024-02-21T23:54:25.903Z,98.24
2024-02-21T23:58:28.897Z,98.09
